Time;durP1;ratioP1;P1;durP2;ratioP2;P2;SDS_P1;SDS_P2;PMS_P1;PMS_P2;Temp;Humidity;BMP_temperature;BMP_pressure;BME280_temperature;BME280_humidity;BME280_pressure;Samples;Min_cycle;Max_cycle;Signal;HPM_P1;HPM_P2
2021/12/31 00:02:17;;;;;;;5.00;2.50;;;14.30;99.90;;;;;;5045502;28;20446;-71
2021/12/31 00:04:42;;;;;;;5.17;2.57;;;14.30;99.90;;;;;;5057095;28;20422;-69
2021/12/31 00:07:09;;;;;;;4.17;2.53;;;14.60;99.90;;;;;;5033377;28;20185;-71
2021/12/31 00:09:35;;;;;;;3.90;2.60;;;14.30;99.90;;;;;;5031629;28;20670;-70
2021/12/31 00:12:02;;;;;;;3.60;2.80;;;14.30;99.90;;;;;;5046482;28;20473;-70
2021/12/31 00:14:28;;;;;;;3.90;3.20;;;14.30;99.90;;;;;;5048229;28;20189;-71
2021/12/31 00:16:53;;;;;;;9.53;3.10;;;14.20;99.90;;;;;;5048475;28;20448;-70
2021/12/31 00:19:20;;;;;;;4.80;3.73;;;14.20;99.90;;;;;;5051292;28;20193;-71
2021/12/31 00:21:48;;;;;;;3.90;3.03;;;14.20;99.90;;;;;;5047153;28;20177;-71
2021/12/31 00:24:13;;;;;;;5.60;3.07;;;14.10;99.90;;;;;;5050611;28;20790;-70
2021/12/31 00:26:39;;;;;;;9.60;4.00;;;14.20;99.90;;;;;;5050181;28;20407;-70
2021/12/31 00:29:04;;;;;;;6.70;3.97;;;14.20;99.90;;;;;;5050786;28;20694;-70
2021/12/31 00:31:30;;;;;;;5.83;3.23;;;14.20;99.90;;;;;;5043804;28;20680;-71
2021/12/31 00:33:56;;;;;;;7.07;4.07;;;14.20;99.90;;;;;;5060779;28;20613;-70
2021/12/31 00:36:21;;;;;;;7.10;3.57;;;14.20;99.90;;;;;;5068907;28;20169;-71
2021/12/31 00:38:47;;;;;;;4.77;3.37;;;14.10;99.90;;;;;;5070389;28;20255;-71
2021/12/31 00:41:12;;;;;;;5.20;3.33;;;14.20;99.90;;;;;;5051634;28;20253;-71
2021/12/31 00:43:38;;;;;;;5.57;3.00;;;14.20;99.90;;;;;;5048930;28;20189;-71
2021/12/31 00:46:04;;;;;;;7.23;2.83;;;14.20;99.90;;;;;;5046125;28;20174;-70
2021/12/31 00:48:29;;;;;;;4.17;3.17;;;14.20;99.90;;;;;;5050118;28;20219;-70
2021/12/31 00:50:56;;;;;;;3.33;3.03;;;14.10;99.90;;;;;;5034013;28;20264;-70
2021/12/31 00:53:22;;;;;;;5.77;2.60;;;14.20;99.90;;;;;;5040271;28;20657;-70
2021/12/31 00:55:48;;;;;;;4.40;3.07;;;14.20;99.90;;;;;;5044872;28;20495;-70
2021/12/31 00:58:13;;;;;;;6.07;2.80;;;14.20;99.90;;;;;;5043996;28;20193;-71
2021/12/31 01:00:39;;;;;;;5.77;2.87;;;14.10;99.90;;;;;;5035089;28;20177;-70
2021/12/31 01:03:04;;;;;;;4.27;2.90;;;14.10;99.90;;;;;;5052203;28;20220;-70
2021/12/31 01:05:30;;;;;;;4.63;2.57;;;14.00;99.90;;;;;;5046270;28;20189;-70
2021/12/31 01:07:56;;;;;;;7.67;3.20;;;13.90;99.90;;;;;;5046531;28;20194;-70
2021/12/31 01:10:24;;;;;;;5.70;3.00;;;13.90;99.90;;;;;;5028639;28;20444;-70
2021/12/31 01:12:50;;;;;;;6.87;2.40;;;13.90;99.90;;;;;;5029109;28;20686;-70
2021/12/31 01:15:33;;;;;;;5.33;2.80;;;13.90;99.90;;;;;;5039555;28;20455;-69
2021/12/31 01:20:24;;;;;;;6.10;2.43;;;13.90;99.90;;;;;;5047260;28;20495;-70
2021/12/31 01:22:49;;;;;;;4.27;3.40;;;13.90;99.90;;;;;;5048129;28;20213;-69
2021/12/31 01:25:15;;;;;;;4.30;2.83;;;13.90;99.90;;;;;;5040860;28;20259;-69
2021/12/31 01:27:42;;;;;;;4.90;2.80;;;13.90;99.90;;;;;;5046654;28;20173;-69
2021/12/31 01:30:09;;;;;;;4.57;3.20;;;13.90;99.90;;;;;;5036975;28;20196;-69
2021/12/31 01:32:35;;;;;;;3.00;2.63;;;13.90;99.90;;;;;;5047339;28;20523;-70
2021/12/31 01:35:01;;;;;;;4.27;2.70;;;13.90;99.90;;;;;;5038951;28;20538;-69
2021/12/31 01:37:27;;;;;;;5.23;3.03;;;13.90;99.90;;;;;;5047104;28;20905;-70
2021/12/31 01:39:53;;;;;;;4.43;2.80;;;13.90;99.90;;;;;;5035289;28;20268;-70
2021/12/31 01:42:25;;;;;;;11.27;2.80;;;13.90;99.90;;;;;;5045500;28;20535;-70
2021/12/31 01:45:00;;;;;;;5.07;2.70;;;13.90;99.90;;;;;;5040356;28;20424;-70
2021/12/31 01:47:46;;;;;;;6.27;3.60;;;13.80;99.90;;;;;;5036470;28;20439;-69
2021/12/31 01:50:12;;;;;;;3.37;2.80;;;13.80;99.90;;;;;;5043274;28;20445;-70
2021/12/31 01:52:41;;;;;;;4.83;2.73;;;13.70;99.90;;;;;;5047910;28;20674;-70
2021/12/31 01:55:10;;;;;;;4.03;2.60;;;13.50;99.90;;;;;;5038985;28;20425;-70
2021/12/31 01:57:37;;;;;;;4.40;2.80;;;13.40;99.90;;;;;;5031030;28;20771;-70
2021/12/31 02:00:03;;;;;;;5.03;2.77;;;13.20;99.90;;;;;;5037265;28;20433;-70
2021/12/31 02:02:29;;;;;;;3.40;2.83;;;13.10;99.90;;;;;;5052135;28;20979;-70
2021/12/31 02:04:55;;;;;;;4.60;2.53;;;13.00;99.90;;;;;;5049244;28;20427;-69
2021/12/31 02:07:20;;;;;;;7.97;2.90;;;12.90;99.90;;;;;;5044714;28;20193;-69
2021/12/31 02:09:50;;;;;;;5.53;2.77;;;12.70;99.90;;;;;;5046792;28;20189;-69
2021/12/31 02:12:17;;;;;;;3.47;2.40;;;12.60;99.90;;;;;;5028791;28;20209;-69
2021/12/31 02:14:42;;;;;;;4.40;2.50;;;12.50;99.90;;;;;;5033220;28;20524;-70
2021/12/31 02:17:10;;;;;;;5.50;2.90;;;12.50;99.90;;;;;;5045301;28;20519;-69
2021/12/31 02:19:37;;;;;;;5.43;2.90;;;12.30;99.90;;;;;;5035526;28;20264;-70
2021/12/31 02:22:03;;;;;;;5.93;2.90;;;12.30;99.90;;;;;;5032544;28;20937;-69
2021/12/31 02:24:29;;;;;;;4.90;2.70;;;12.30;99.90;;;;;;5029877;28;20509;-70
2021/12/31 02:26:54;;;;;;;4.80;3.00;;;12.30;99.90;;;;;;5042408;28;20870;-69
2021/12/31 02:29:24;;;;;;;4.43;2.47;;;12.40;99.90;;;;;;5044760;28;20256;-69
2021/12/31 02:31:50;;;;;;;7.00;2.70;;;12.50;99.90;;;;;;5048038;28;20578;-69
2021/12/31 02:34:15;;;;;;;6.50;2.90;;;12.60;99.90;;;;;;5056414;28;20505;-70
2021/12/31 02:36:41;;;;;;;4.73;2.60;;;12.70;99.90;;;;;;5039180;28;20178;-70
2021/12/31 02:39:07;;;;;;;5.00;2.93;;;12.70;99.90;;;;;;5031954;28;20206;-70
2021/12/31 02:41:32;;;;;;;4.20;2.93;;;12.70;99.90;;;;;;5040093;28;20178;-70
2021/12/31 02:43:58;;;;;;;3.50;3.03;;;12.70;99.90;;;;;;5032380;28;20209;-69
2021/12/31 02:46:24;;;;;;;8.63;2.73;;;12.70;99.90;;;;;;5041106;28;20327;-70
2021/12/31 02:48:55;;;;;;;6.33;2.93;;;12.70;99.90;;;;;;5038236;28;20602;-69
2021/12/31 02:51:23;;;;;;;3.73;3.20;;;12.80;99.90;;;;;;5038805;28;20263;-70
2021/12/31 02:53:51;;;;;;;4.70;2.77;;;12.80;99.90;;;;;;5026133;28;20436;-69
2021/12/31 02:56:18;;;;;;;5.07;2.83;;;12.80;99.90;;;;;;5043496;28;20748;-70
2021/12/31 02:58:45;;;;;;;7.37;2.70;;;12.80;99.90;;;;;;5034005;28;20500;-69
2021/12/31 03:01:12;;;;;;;4.23;3.13;;;12.80;99.90;;;;;;5043715;28;20467;-70
2021/12/31 03:03:40;;;;;;;5.67;2.80;;;12.90;99.90;;;;;;5049743;28;20469;-68
2021/12/31 03:06:07;;;;;;;3.83;2.90;;;12.90;99.90;;;;;;5039107;28;20444;-70
2021/12/31 03:08:40;;;;;;;5.63;2.93;;;12.90;99.90;;;;;;5045144;28;20895;-69
2021/12/31 03:11:08;;;;;;;13.80;3.00;;;12.90;99.90;;;;;;5034198;28;20502;-70
2021/12/31 03:13:35;;;;;;;6.50;3.27;;;12.90;99.90;;;;;;5036754;28;20514;-69
2021/12/31 03:16:02;;;;;;;5.40;2.80;;;13.00;99.90;;;;;;5044859;28;20455;-69
2021/12/31 03:18:28;;;;;;;4.20;2.70;;;13.10;99.90;;;;;;5047417;28;20407;-69
2021/12/31 03:21:05;;;;;;;6.90;2.87;;;13.10;99.90;;;;;;5046762;28;20495;-69
2021/12/31 03:23:32;;;;;;;7.40;2.53;;;13.10;99.90;;;;;;5047514;28;20489;-69
2021/12/31 03:25:58;;;;;;;5.73;3.47;;;13.10;99.90;;;;;;5045898;28;20447;-70
2021/12/31 03:28:23;;;;;;;6.33;3.20;;;13.10;99.90;;;;;;5046249;28;20540;-69
2021/12/31 03:30:49;;;;;;;6.03;3.27;;;13.10;99.90;;;;;;5045281;28;20620;-70
2021/12/31 03:33:15;;;;;;;4.03;3.10;;;13.10;99.90;;;;;;5055728;28;20548;-71
2021/12/31 03:35:41;;;;;;;5.80;3.13;;;13.00;99.90;;;;;;5052616;28;20427;-70
2021/12/31 03:38:08;;;;;;;4.37;3.17;;;13.00;99.90;;;;;;5040053;28;20205;-70
2021/12/31 03:40:33;;;;;;;5.17;3.57;;;12.90;99.90;;;;;;5031022;28;20569;-70
2021/12/31 03:42:59;;;;;;;7.80;3.80;;;12.90;99.90;;;;;;5027187;28;20535;-70
2021/12/31 03:45:25;;;;;;;6.60;3.73;;;13.00;99.90;;;;;;5041345;28;20183;-71
2021/12/31 03:47:51;;;;;;;4.60;3.40;;;13.00;99.90;;;;;;5046530;28;20184;-70
2021/12/31 03:50:16;;;;;;;6.87;3.57;;;13.00;99.90;;;;;;5040375;28;20207;-70
2021/12/31 03:52:42;;;;;;;5.63;3.57;;;12.90;99.90;;;;;;5029532;28;20215;-70
2021/12/31 03:55:10;;;;;;;6.70;3.67;;;12.90;99.90;;;;;;5030854;28;20644;-70
2021/12/31 03:57:36;;;;;;;7.73;3.47;;;12.90;99.90;;;;;;5037586;28;20427;-70
2021/12/31 04:00:05;;;;;;;6.40;3.53;;;12.90;99.90;;;;;;5037782;28;20920;-70
2021/12/31 04:02:31;;;;;;;9.23;3.70;;;12.90;99.90;;;;;;5045820;28;20457;-70
2021/12/31 04:04:56;;;;;;;7.40;3.63;;;12.90;99.90;;;;;;5053889;28;21298;-70
2021/12/31 04:07:22;;;;;;;7.73;4.07;;;12.90;99.90;;;;;;5029491;28;20185;-71
2021/12/31 04:09:48;;;;;;;6.30;3.80;;;13.30;99.90;;;;;;5041436;28;20266;-70
2021/12/31 04:12:13;;;;;;;5.70;4.03;;;12.90;99.90;;;;;;5026904;28;20221;-70
2021/12/31 04:14:39;;;;;;;5.63;3.37;;;12.90;99.90;;;;;;5032020;28;20513;-70
2021/12/31 04:17:04;;;;;;;5.50;4.10;;;12.90;99.90;;;;;;5044767;28;20284;-70
2021/12/31 04:19:30;;;;;;;5.40;4.00;;;12.90;99.90;;;;;;5045905;28;20523;-71
2021/12/31 04:21:56;;;;;;;6.17;3.83;;;12.90;99.90;;;;;;5045857;28;20544;-71
2021/12/31 04:24:52;;;;;;;7.13;3.90;;;12.90;99.90;;;;;;5046149;28;20456;-70
2021/12/31 04:27:17;;;;;;;6.10;4.10;;;13.00;99.90;;;;;;5046590;28;20246;-71
2021/12/31 04:29:50;;;;;;;5.60;4.03;;;12.90;99.90;;;;;;5046921;28;20415;-71
2021/12/31 04:32:16;;;;;;;6.73;4.30;;;12.80;99.90;;;;;;5044543;28;20463;-70
2021/12/31 04:34:41;;;;;;;6.10;4.10;;;12.80;99.90;;;;;;5054309;28;20418;-69
2021/12/31 04:37:07;;;;;;;5.00;3.90;;;12.80;99.90;;;;;;5043947;28;20165;-70
2021/12/31 04:39:32;;;;;;;5.03;4.07;;;12.80;99.90;;;;;;5050130;28;20166;-71
2021/12/31 04:41:58;;;;;;;10.50;4.27;;;12.70;99.90;;;;;;5050258;28;20169;-70
2021/12/31 04:44:23;;;;;;;7.23;4.10;;;12.70;99.90;;;;;;5046404;28;20348;-70
2021/12/31 04:46:49;;;;;;;11.07;4.60;;;12.70;99.90;;;;;;5042344;28;20260;-70
2021/12/31 04:49:14;;;;;;;6.03;4.47;;;12.60;99.90;;;;;;5050397;28;20177;-71
2021/12/31 04:51:40;;;;;;;6.27;4.67;;;12.60;99.90;;;;;;5047502;28;20250;-70
2021/12/31 04:54:07;;;;;;;13.30;5.00;;;12.60;99.90;;;;;;5048140;28;20796;-71
2021/12/31 04:56:33;;;;;;;8.77;4.40;;;12.60;99.90;;;;;;5045549;28;20256;-70
2021/12/31 04:58:58;;;;;;;8.97;4.17;;;12.50;99.90;;;;;;5045806;28;20528;-70
2021/12/31 05:01:23;;;;;;;8.13;4.97;;;12.50;99.90;;;;;;5042268;28;20521;-71
2021/12/31 05:03:49;;;;;;;10.73;4.87;;;12.50;99.90;;;;;;5053486;28;20227;-71
2021/12/31 05:06:15;;;;;;;6.53;4.20;;;12.50;99.90;;;;;;5042423;28;20239;-70
2021/12/31 05:08:41;;;;;;;6.80;4.60;;;12.50;99.90;;;;;;5048769;28;20204;-70
2021/12/31 05:11:06;;;;;;;7.73;4.90;;;12.50;99.90;;;;;;5043426;28;21286;-70
2021/12/31 05:13:32;;;;;;;6.90;4.40;;;12.40;99.90;;;;;;5030448;28;20563;-70
2021/12/31 05:16:02;;;;;;;6.50;4.70;;;12.40;99.90;;;;;;5037653;28;20552;-70
2021/12/31 05:18:28;;;;;;;7.70;4.23;;;12.50;99.90;;;;;;5042045;28;20177;-70
2021/12/31 05:20:53;;;;;;;6.90;4.17;;;12.40;99.90;;;;;;5036418;28;20436;-70
2021/12/31 05:23:19;;;;;;;6.80;4.07;;;12.50;99.90;;;;;;5033968;28;20198;-70
2021/12/31 05:25:45;;;;;;;7.27;4.13;;;12.40;99.90;;;;;;5028488;28;20626;-70
2021/12/31 05:28:10;;;;;;;6.07;4.40;;;12.40;99.90;;;;;;5044212;28;20569;-70
2021/12/31 05:30:36;;;;;;;5.70;3.90;;;12.40;99.90;;;;;;5046426;28;20209;-69
2021/12/31 05:33:01;;;;;;;5.03;3.97;;;12.40;99.90;;;;;;5051981;28;20246;-70
2021/12/31 05:35:27;;;;;;;7.87;4.07;;;12.40;99.90;;;;;;5053534;28;20624;-70
2021/12/31 05:37:53;;;;;;;7.10;3.63;;;12.40;99.90;;;;;;5030369;28;20231;-70
2021/12/31 05:40:18;;;;;;;7.70;3.87;;;12.40;99.90;;;;;;5038971;28;20189;-70
2021/12/31 05:42:44;;;;;;;7.10;4.03;;;12.40;99.90;;;;;;5035176;28;20281;-69
2021/12/31 05:45:10;;;;;;;6.00;3.73;;;12.40;99.90;;;;;;5046397;28;20529;-70
2021/12/31 05:47:36;;;;;;;3.90;3.30;;;12.40;99.90;;;;;;5046103;28;20197;-70
2021/12/31 05:50:04;;;;;;;7.30;4.13;;;12.30;99.90;;;;;;5046091;28;20212;-70
2021/12/31 05:52:30;;;;;;;5.10;3.80;;;12.30;99.90;;;;;;5039673;28;20962;-70
2021/12/31 05:54:56;;;;;;;4.23;3.50;;;12.30;99.90;;;;;;5039920;28;20576;-69
2021/12/31 05:57:21;;;;;;;4.40;3.43;;;12.40;99.90;;;;;;5039909;28;20460;-70
2021/12/31 16:04:34;;;;;;;10.87;7.03;;;10.80;99.90;;;;;;5084652;28;20446;-69
2021/12/31 16:07:00;;;;;;;11.03;7.67;;;10.70;99.90;;;;;;5084325;28;20422;-70
2021/12/31 16:09:25;;;;;;;10.10;7.10;;;10.80;99.90;;;;;;5086491;28;20172;-70
2021/12/31 16:11:51;;;;;;;15.73;6.73;;;10.90;99.90;;;;;;5085950;28;20234;-70
2021/12/31 16:14:16;;;;;;;8.07;5.27;;;11.00;99.90;;;;;;5066205;28;20245;-70
2021/12/31 16:16:42;;;;;;;7.57;5.37;;;11.20;99.90;;;;;;5065245;28;20194;-69
2021/12/31 16:19:11;;;;;;;8.43;6.00;;;11.30;99.90;;;;;;5064896;28;20260;-70
2021/12/31 16:21:37;;;;;;;8.40;6.00;;;11.40;99.90;;;;;;5062915;28;20530;-73
2021/12/31 16:24:02;;;;;;;9.47;6.40;;;11.40;99.90;;;;;;5064139;28;20462;-70
2021/12/31 16:26:28;;;;;;;11.03;7.60;;;11.60;99.90;;;;;;5063357;28;20723;-70
2021/12/31 16:28:53;;;;;;;11.10;7.67;;;11.70;99.90;;;;;;5063814;28;20180;-70
2021/12/31 16:31:19;;;;;;;12.00;8.37;;;11.80;99.90;;;;;;5063535;28;20542;-70
2021/12/31 16:33:45;;;;;;;11.20;6.63;;;11.80;99.90;;;;;;5076397;28;20199;-69
2021/12/31 16:36:10;;;;;;;8.57;5.33;;;11.80;99.90;;;;;;5072502;28;20184;-70
2021/12/31 16:38:36;;;;;;;5.17;4.17;;;11.90;99.90;;;;;;5064960;28;20172;-70
2021/12/31 16:41:02;;;;;;;4.20;3.23;;;11.90;99.90;;;;;;5063558;28;20169;-69
2021/12/31 16:43:28;;;;;;;3.83;3.37;;;12.10;99.90;;;;;;5064035;28;20206;-70
2021/12/31 16:45:54;;;;;;;3.70;3.30;;;12.10;99.90;;;;;;5063386;28;20499;-69
2021/12/31 16:48:21;;;;;;;4.03;2.83;;;12.20;99.90;;;;;;5062235;28;20427;-70
2021/12/31 16:50:46;;;;;;;5.57;3.27;;;12.20;99.90;;;;;;5062899;28;20279;-70
2021/12/31 16:53:12;;;;;;;3.20;2.90;;;12.30;99.90;;;;;;5062676;28;20526;-69
2021/12/31 16:55:39;;;;;;;5.10;3.20;;;12.30;99.90;;;;;;5063247;28;20518;-69
2021/12/31 16:58:04;;;;;;;3.87;3.47;;;12.40;99.90;;;;;;5063607;28;20202;-70
2021/12/31 17:00:30;;;;;;;6.20;3.47;;;12.50;99.90;;;;;;5062878;28;20450;-70
2021/12/31 17:02:55;;;;;;;6.83;4.60;;;12.60;99.90;;;;;;5061799;28;20218;-70
2021/12/31 17:05:21;;;;;;;7.40;4.90;;;12.60;99.90;;;;;;5063538;28;20187;-71
2021/12/31 17:07:47;;;;;;;7.17;3.67;;;12.70;99.90;;;;;;5062765;28;20207;-71
2021/12/31 17:10:17;;;;;;;11.40;4.50;;;12.60;99.90;;;;;;5063220;28;20176;-71
2021/12/31 17:12:47;;;;;;;4.30;3.13;;;12.60;99.90;;;;;;5070594;28;20395;-71
2021/12/31 17:15:16;;;;;;;6.37;4.73;;;12.60;99.90;;;;;;5049835;28;20438;-71
2021/12/31 17:17:42;;;;;;;8.07;4.30;;;12.60;99.90;;;;;;5049377;28;20430;-71
2021/12/31 17:20:08;;;;;;;8.40;5.13;;;12.60;99.90;;;;;;5047876;28;20440;-72
2021/12/31 17:22:34;;;;;;;6.30;4.10;;;12.60;99.90;;;;;;5048860;28;20624;-71
2021/12/31 17:24:59;;;;;;;6.20;5.10;;;12.60;99.90;;;;;;5048200;28;20531;-71
2021/12/31 17:27:25;;;;;;;5.70;4.10;;;12.60;99.90;;;;;;5048199;28;20203;-70
2021/12/31 17:29:50;;;;;;;16.23;9.67;;;12.60;99.90;;;;;;5050052;28;20249;-71
2021/12/31 17:32:16;;;;;;;16.23;7.43;;;12.80;99.90;;;;;;5051516;28;20415;-71
2021/12/31 17:34:41;;;;;;;8.80;5.43;;;12.70;99.90;;;;;;5057651;28;20201;-69
2021/12/31 17:37:07;;;;;;;6.87;4.60;;;12.70;99.90;;;;;;5048491;28;20250;-71
2021/12/31 17:39:33;;;;;;;7.00;5.70;;;12.70;99.90;;;;;;5050088;28;20165;-70
2021/12/31 17:41:58;;;;;;;8.13;6.37;;;12.60;99.90;;;;;;5048910;28;20188;-70
2021/12/31 17:44:24;;;;;;;6.47;5.30;;;12.50;99.90;;;;;;5047847;28;20209;-69
2021/12/31 17:46:49;;;;;;;7.47;4.97;;;12.50;99.90;;;;;;5047254;28;20174;-70
2021/12/31 17:49:15;;;;;;;7.17;4.27;;;12.40;99.90;;;;;;5049547;28;20243;-70
2021/12/31 17:51:40;;;;;;;5.00;3.70;;;12.40;99.90;;;;;;5046772;28;20276;-70
2021/12/31 17:54:06;;;;;;;9.60;4.90;;;12.40;99.90;;;;;;5049209;28;20204;-70
2021/12/31 17:56:31;;;;;;;4.63;3.50;;;12.30;99.90;;;;;;5048267;28;20272;-69
2021/12/31 17:58:57;;;;;;;6.93;3.97;;;12.30;99.90;;;;;;5049803;28;20188;-70
2021/12/31 18:01:22;;;;;;;4.20;3.80;;;12.30;99.90;;;;;;5047758;28;20181;-70
2021/12/31 18:03:48;;;;;;;3.80;3.23;;;12.30;99.90;;;;;;5049393;28;20204;-70
2021/12/31 18:06:14;;;;;;;4.10;3.33;;;12.30;99.90;;;;;;5045936;28;20189;-70
2021/12/31 18:08:39;;;;;;;6.33;4.63;;;12.30;99.90;;;;;;5045028;28;20204;-70
2021/12/31 18:11:07;;;;;;;4.67;3.80;;;12.30;99.90;;;;;;5047337;28;20234;-70
2021/12/31 18:13:33;;;;;;;3.87;3.50;;;12.20;99.90;;;;;;5049081;28;20259;-70
2021/12/31 18:15:58;;;;;;;5.30;3.13;;;12.20;99.90;;;;;;5048815;28;20769;-71
2021/12/31 18:18:24;;;;;;;5.70;4.13;;;12.20;99.90;;;;;;5048627;28;20274;-70
2021/12/31 18:20:49;;;;;;;4.73;3.60;;;12.10;99.90;;;;;;5048084;28;20275;-70
2021/12/31 18:23:16;;;;;;;5.33;3.67;;;12.10;99.90;;;;;;5048523;28;20205;-70
2021/12/31 18:25:42;;;;;;;5.20;3.60;;;12.10;99.90;;;;;;5048073;28;20180;-71
2021/12/31 18:28:09;;;;;;;7.17;3.50;;;12.10;99.90;;;;;;5048013;28;20423;-70
2021/12/31 18:30:34;;;;;;;4.87;4.40;;;12.00;99.90;;;;;;5044118;28;20178;-70
2021/12/31 18:33:00;;;;;;;6.97;4.70;;;12.10;99.90;;;;;;5057046;28;20512;-69
2021/12/31 18:35:25;;;;;;;5.07;3.90;;;12.00;99.90;;;;;;5056191;28;20180;-70
2021/12/31 18:37:51;;;;;;;3.77;3.20;;;12.00;99.90;;;;;;5048272;28;20188;-70
2021/12/31 18:40:17;;;;;;;4.33;3.60;;;12.00;99.90;;;;;;5046873;28;20177;-70
2021/12/31 18:42:42;;;;;;;3.10;2.80;;;12.00;99.90;;;;;;5045751;28;20208;-70
2021/12/31 18:45:10;;;;;;;4.10;3.20;;;11.90;99.90;;;;;;5043185;28;20173;-70
2021/12/31 18:47:40;;;;;;;4.83;4.33;;;11.90;99.90;;;;;;5046057;28;20173;-70
2021/12/31 18:50:16;;;;;;;31.60;23.90;;;11.90;99.90;;;;;;5047581;28;20420;-70
2021/12/31 18:52:42;;;;;;;6.40;5.70;;;11.80;99.90;;;;;;5046250;28;20428;-69
2021/12/31 18:55:08;;;;;;;4.73;3.27;;;11.80;99.90;;;;;;5046744;28;20439;-69
2021/12/31 18:57:33;;;;;;;5.13;3.20;;;11.80;99.90;;;;;;5046270;28;20235;-70
2021/12/31 18:59:59;;;;;;;4.33;3.40;;;11.90;99.90;;;;;;5047478;28;20263;-69
2021/12/31 19:02:25;;;;;;;4.47;3.60;;;11.70;99.90;;;;;;5055801;28;20295;-70
2021/12/31 19:04:51;;;;;;;4.97;3.63;;;11.70;99.90;;;;;;5056973;28;20177;-70
2021/12/31 19:07:17;;;;;;;6.63;4.20;;;11.70;99.90;;;;;;5045136;28;20439;-71
2021/12/31 19:09:42;;;;;;;8.40;4.97;;;11.70;99.90;;;;;;5047338;28;20169;-70
2021/12/31 19:12:10;;;;;;;7.17;4.80;;;11.90;99.90;;;;;;5048094;28;20673;-70
2021/12/31 19:14:36;;;;;;;6.90;3.93;;;11.90;99.90;;;;;;5044585;28;20284;-70
2021/12/31 19:17:02;;;;;;;4.37;3.80;;;12.10;99.90;;;;;;5052753;28;20443;-70
2021/12/31 19:19:27;;;;;;;5.63;3.70;;;12.10;99.90;;;;;;5067662;28;20411;-70
2021/12/31 19:21:53;;;;;;;4.40;3.57;;;12.20;99.90;;;;;;5044999;28;20201;-70
2021/12/31 19:24:18;;;;;;;4.33;3.73;;;12.30;99.90;;;;;;5047936;28;20587;-70
2021/12/31 19:26:44;;;;;;;3.93;2.97;;;12.30;99.90;;;;;;5045327;28;20183;-70
2021/12/31 19:29:10;;;;;;;8.20;3.30;;;12.40;99.90;;;;;;5047712;28;20222;-70
2021/12/31 19:31:36;;;;;;;3.17;2.80;;;12.40;99.90;;;;;;5046686;28;20189;-70
2021/12/31 19:34:02;;;;;;;5.93;3.40;;;12.50;99.90;;;;;;5055967;28;20448;-70
2021/12/31 19:36:27;;;;;;;3.50;3.10;;;12.50;99.90;;;;;;5044434;28;20220;-70
2021/12/31 19:38:53;;;;;;;7.23;3.33;;;12.50;99.90;;;;;;5047295;28;20204;-70
2021/12/31 19:41:18;;;;;;;4.03;3.40;;;12.40;99.90;;;;;;5046938;28;20258;-70
2021/12/31 19:43:44;;;;;;;15.53;13.43;;;12.40;99.90;;;;;;5047621;28;20217;-70
2021/12/31 19:46:09;;;;;;;6.47;4.57;;;12.30;99.90;;;;;;5045404;28;20463;-70
2021/12/31 19:48:35;;;;;;;6.27;5.10;;;12.40;99.90;;;;;;5047647;28;20209;-70
2021/12/31 19:51:02;;;;;;;7.13;5.60;;;12.50;99.90;;;;;;5046181;28;20177;-70
2021/12/31 19:53:28;;;;;;;18.50;12.60;;;12.50;99.90;;;;;;5045184;28;20197;-70
2021/12/31 19:55:54;;;;;;;12.80;9.47;;;12.60;99.90;;;;;;5046175;28;20511;-69
2021/12/31 19:58:19;;;;;;;8.83;7.20;;;12.60;99.90;;;;;;5047001;28;20873;-70
2021/12/31 20:00:45;;;;;;;47.80;29.97;;;12.70;99.90;;;;;;5046680;28;20181;-71
2021/12/31 20:03:11;;;;;;;14.07;9.87;;;12.70;99.90;;;;;;5055204;28;20450;-70
2021/12/31 20:05:36;;;;;;;12.43;7.53;;;12.70;99.90;;;;;;5048812;28;20432;-70
2021/12/31 20:08:04;;;;;;;9.47;6.97;;;12.70;99.90;;;;;;5032057;28;20178;-70
2021/12/31 20:10:32;;;;;;;8.73;6.93;;;12.70;99.90;;;;;;5046462;28;20205;-70
2021/12/31 20:12:58;;;;;;;11.47;8.23;;;12.70;99.90;;;;;;5045716;28;20501;-71
2021/12/31 20:15:23;;;;;;;8.70;7.00;;;12.70;99.90;;;;;;5047107;28;20455;-70
2021/12/31 20:17:49;;;;;;;13.20;9.00;;;12.70;99.90;;;;;;5047405;28;20172;-71
2021/12/31 20:20:17;;;;;;;11.30;8.27;;;12.70;99.90;;;;;;5046715;28;20188;-70
2021/12/31 20:22:43;;;;;;;11.73;8.47;;;12.80;99.90;;;;;;5045155;28;20554;-70
2021/12/31 20:25:11;;;;;;;17.30;12.23;;;12.80;99.90;;;;;;5045320;28;20424;-70
2021/12/31 20:27:37;;;;;;;15.40;9.40;;;12.80;99.90;;;;;;5045851;28;20415;-70
2021/12/31 20:30:04;;;;;;;13.63;9.00;;;12.80;99.90;;;;;;5046730;28;20514;-70
2021/12/31 20:32:30;;;;;;;18.77;11.33;;;12.80;99.90;;;;;;5047778;28;20920;-70
2021/12/31 20:34:56;;;;;;;16.13;10.63;;;12.80;99.90;;;;;;5051774;28;20442;-70
2021/12/31 20:37:21;;;;;;;16.80;9.80;;;12.70;99.90;;;;;;5045971;28;20182;-70
2021/12/31 20:39:47;;;;;;;11.33;6.83;;;12.80;99.90;;;;;;5046646;28;20173;-70
2021/12/31 20:42:13;;;;;;;23.57;13.40;;;12.70;99.90;;;;;;5047386;28;20184;-70
2021/12/31 20:44:39;;;;;;;25.00;15.10;;;12.70;99.90;;;;;;5040121;28;20209;-70
2021/12/31 20:47:05;;;;;;;29.17;15.47;;;12.70;99.90;;;;;;5045123;28;20422;-71
2021/12/31 20:49:31;;;;;;;13.90;10.23;;;12.70;99.90;;;;;;5044715;28;20185;-70
2021/12/31 20:51:58;;;;;;;44.70;24.20;;;12.50;99.90;;;;;;5049486;28;20592;-70
2021/12/31 20:54:29;;;;;;;33.30;18.63;;;12.60;99.90;;;;;;5049093;28;20465;-70
2021/12/31 20:56:55;;;;;;;30.83;17.17;;;12.70;99.90;;;;;;5048104;28;20423;-70
2021/12/31 20:59:21;;;;;;;27.63;19.10;;;12.70;99.90;;;;;;5050877;28;20948;-70
2021/12/31 21:01:46;;;;;;;21.37;13.40;;;12.70;99.90;;;;;;5067569;28;20419;-70
2021/12/31 21:04:12;;;;;;;28.80;19.00;;;12.60;99.90;;;;;;5061463;28;20196;-70
2021/12/31 21:06:37;;;;;;;6.90;5.07;;;12.60;99.90;;;;;;5069230;28;20172;-70
2021/12/31 21:09:04;;;;;;;12.40;10.23;;;12.60;99.90;;;;;;5052740;28;20237;-70
2021/12/31 21:11:30;;;;;;;5.90;4.70;;;12.60;99.90;;;;;;5065285;28;20537;-70
2021/12/31 21:13:56;;;;;;;5.37;4.60;;;12.60;99.90;;;;;;5049906;28;20453;-70
2021/12/31 21:16:23;;;;;;;5.73;4.70;;;12.40;99.90;;;;;;5046362;28;20411;-70
2021/12/31 21:18:48;;;;;;;8.90;7.00;;;12.60;99.90;;;;;;5050253;28;20423;-70
2021/12/31 21:21:14;;;;;;;5.83;4.40;;;12.60;99.90;;;;;;5048596;28;20782;-69
2021/12/31 21:23:40;;;;;;;4.93;4.30;;;12.50;99.90;;;;;;5049661;28;20270;-70
2021/12/31 21:26:06;;;;;;;8.10;5.60;;;12.50;99.90;;;;;;5049806;28;20176;-70
2021/12/31 21:28:31;;;;;;;6.07;5.13;;;12.50;99.90;;;;;;5050132;28;20700;-70
2021/12/31 21:30:57;;;;;;;7.07;4.20;;;12.50;99.90;;;;;;5049948;28;20169;-70
2021/12/31 21:33:23;;;;;;;7.70;5.30;;;12.50;99.90;;;;;;5063886;28;20197;-70
2021/12/31 21:35:48;;;;;;;9.57;6.10;;;12.40;99.90;;;;;;5046612;28;20223;-71
2021/12/31 21:38:17;;;;;;;6.83;5.43;;;12.40;99.90;;;;;;5049382;28;20174;-70
2021/12/31 21:40:44;;;;;;;6.73;5.90;;;12.30;99.90;;;;;;5047874;28;20552;-70
2021/12/31 21:43:10;;;;;;;9.80;7.40;;;12.30;99.90;;;;;;5048453;28;20525;-71
2021/12/31 21:45:36;;;;;;;5.90;5.30;;;12.30;99.90;;;;;;5047853;28;20511;-71
2021/12/31 21:48:02;;;;;;;7.80;6.60;;;12.30;99.90;;;;;;5049582;28;20498;-70
2021/12/31 21:50:28;;;;;;;6.20;4.80;;;12.40;99.90;;;;;;5048623;28;20173;-71
2021/12/31 21:52:53;;;;;;;5.77;4.67;;;12.20;99.90;;;;;;5047544;28;20204;-70
2021/12/31 21:55:19;;;;;;;7.43;5.60;;;12.20;99.90;;;;;;5038866;28;20854;-70
2021/12/31 21:57:45;;;;;;;5.50;4.70;;;12.20;99.90;;;;;;5049048;28;20276;-70
2021/12/31 22:00:13;;;;;;;8.07;5.70;;;12.20;99.90;;;;;;5049320;28;20246;-70
2021/12/31 22:02:40;;;;;;;6.50;4.97;;;12.20;99.90;;;;;;5057265;28;20716;-70
2021/12/31 22:05:07;;;;;;;5.20;4.70;;;12.20;99.90;;;;;;5062179;28;20789;-70
2021/12/31 22:07:33;;;;;;;7.63;6.27;;;12.20;99.90;;;;;;5066830;28;20415;-69
2021/12/31 22:09:58;;;;;;;7.20;5.33;;;12.20;99.90;;;;;;5057542;28;20422;-70
2021/12/31 22:12:24;;;;;;;6.93;4.90;;;12.20;99.90;;;;;;5049284;28;20840;-70
2021/12/31 22:14:50;;;;;;;5.47;4.50;;;12.10;99.90;;;;;;5049260;28;20177;-70
2021/12/31 22:17:16;;;;;;;8.33;5.10;;;12.20;99.90;;;;;;5049129;28;20173;-70
2021/12/31 22:19:42;;;;;;;9.50;7.40;;;12.20;99.90;;;;;;5047984;28;20423;-70
2021/12/31 22:22:08;;;;;;;8.33;6.20;;;12.20;99.90;;;;;;5048234;28;20400;-71
2021/12/31 22:24:33;;;;;;;6.00;5.30;;;12.20;99.90;;;;;;5049476;28;20465;-71
2021/12/31 22:26:59;;;;;;;5.47;4.50;;;12.20;99.90;;;;;;5048303;28;20699;-71
2021/12/31 22:29:24;;;;;;;7.50;5.43;;;12.20;99.90;;;;;;5049118;28;20177;-71
2021/12/31 22:31:51;;;;;;;8.50;5.40;;;12.10;99.90;;;;;;5051233;28;20298;-71
2021/12/31 22:34:16;;;;;;;6.17;4.77;;;12.20;99.90;;;;;;5055002;28;20213;-71
2021/12/31 22:36:42;;;;;;;7.90;5.00;;;12.20;99.90;;;;;;5045201;28;20922;-70
2021/12/31 22:39:08;;;;;;;7.33;5.67;;;12.20;99.90;;;;;;5048475;28;20174;-71
2021/12/31 22:41:33;;;;;;;6.60;5.90;;;12.20;99.90;;;;;;5048067;28;20918;-71
2021/12/31 22:43:59;;;;;;;6.20;5.20;;;12.20;99.90;;;;;;5046811;28;20296;-71
2021/12/31 22:46:25;;;;;;;6.33;5.03;;;12.30;99.90;;;;;;5046295;28;20606;-71
2021/12/31 22:48:51;;;;;;;6.70;4.80;;;12.30;99.90;;;;;;5047319;28;20687;-71